CEB2531 RPVI-RPLL
Flight info
| Callsign | CEB2531 |
|---|---|
| Flight time | 0h 52m |
| Altitude | 32000 |
| Route | LAMBO1S LAMBO B472 IBAGO IBAGO3R |
| Aircraft | A320/M-SDE3FGHIRWY/LB1 |
Departure
| Time | 2026-04-26 13:39 |
|---|---|
| Airport | Iloilo International Airport (RPVI) |
Arrival
| Time | 2026-04-26 14:31 |
|---|---|
| Airport | Ninoy Aquino International Airport (RPLL) |
| Time | Latitude | Longitude | Altitude | Speed | Heading |
|---|---|---|---|---|---|
| 2026-04-26 13:04 | 10.83204 | 122.49663 | 175 ft | 0 kts | 144° |
| 2026-04-26 13:30 | 10.83202 | 122.49663 | 175 ft | 0 kts | 160° |
| 2026-04-26 13:30 | 10.83196 | 122.49657 | 175 ft | 2 kts | 247° |
| 2026-04-26 13:30 | 10.83198 | 122.49626 | 175 ft | 6 kts | 281° |
| 2026-04-26 13:30 | 10.83183 | 122.49583 | 175 ft | 7 kts | 208° |
| 2026-04-26 13:31 | 10.83130 | 122.49564 | 175 ft | 8 kts | 198° |
| 2026-04-26 13:31 | 10.83068 | 122.49542 | 175 ft | 9 kts | 201° |
| 2026-04-26 13:31 | 10.83028 | 122.49491 | 175 ft | 10 kts | 269° |
| 2026-04-26 13:31 | 10.83049 | 122.49417 | 175 ft | 11 kts | 289° |
| 2026-04-26 13:32 | 10.83070 | 122.49364 | 175 ft | 0 kts | 290° |
| 2026-04-26 13:34 | 10.83070 | 122.49363 | 175 ft | 0 kts | 290° |
| 2026-04-26 13:35 | 10.83081 | 122.49332 | 175 ft | 6 kts | 290° |
| 2026-04-26 13:35 | 10.83082 | 122.49271 | 175 ft | 11 kts | 242° |
| 2026-04-26 13:35 | 10.83003 | 122.49226 | 175 ft | 15 kts | 199° |
| 2026-04-26 13:35 | 10.82890 | 122.49184 | 175 ft | 19 kts | 200° |
| 2026-04-26 13:36 | 10.82743 | 122.49129 | 175 ft | 24 kts | 200° |
| 2026-04-26 13:36 | 10.82583 | 122.49070 | 175 ft | 24 kts | 200° |
| 2026-04-26 13:36 | 10.82427 | 122.49012 | 175 ft | 23 kts | 200° |
| 2026-04-26 13:36 | 10.82295 | 122.48984 | 175 ft | 15 kts | 164° |
| 2026-04-26 13:37 | 10.82258 | 122.48962 | 175 ft | 5 kts | 324° |
| 2026-04-26 13:37 | 10.82303 | 122.48966 | 175 ft | 7 kts | 19° |
| 2026-04-26 13:37 | 10.82335 | 122.48978 | 175 ft | 0 kts | 19° |
| 2026-04-26 13:37 | 10.82337 | 122.48979 | 175 ft | 2 kts | 19° |
| 2026-04-26 13:38 | 10.82585 | 122.49071 | 175 ft | 77 kts | 20° |
| 2026-04-26 13:38 | 10.83098 | 122.49266 | 175 ft | 38 kts | 20° |
| 2026-04-26 13:38 | 10.83221 | 122.49313 | 175 ft | 17 kts | 20° |
| 2026-04-26 13:38 | 10.83334 | 122.49355 | 175 ft | 17 kts | 20° |
| 2026-04-26 13:39 | 10.83651 | 122.49468 | 175 ft | 86 kts | 20° |
| 2026-04-26 13:39 | 10.84430 | 122.49752 | 238 ft | 141 kts | 20° |
| 2026-04-26 13:39 | 10.85379 | 122.50101 | 690 ft | 154 kts | 20° |
| 2026-04-26 13:39 | 10.86408 | 122.50481 | 1282 ft | 163 kts | 20° |
| 2026-04-26 13:40 | 10.87461 | 122.50868 | 1924 ft | 162 kts | 20° |
| 2026-04-26 13:40 | 10.88527 | 122.51265 | 2449 ft | 170 kts | 20° |
| 2026-04-26 13:40 | 10.89688 | 122.51705 | 2827 ft | 188 kts | 20° |
| 2026-04-26 13:40 | 10.90969 | 122.52188 | 3232 ft | 207 kts | 20° |
| 2026-04-26 13:41 | 10.92417 | 122.52637 | 3714 ft | 229 kts | 5° |
| 2026-04-26 13:41 | 10.93993 | 122.52277 | 4273 ft | 246 kts | 328° |
| 2026-04-26 13:41 | 10.95407 | 122.51226 | 4995 ft | 259 kts | 322° |
| 2026-04-26 13:41 | 10.96835 | 122.50087 | 5858 ft | 264 kts | 322° |
| 2026-04-26 13:42 | 10.98284 | 122.48940 | 6557 ft | 266 kts | 322° |
| 2026-04-26 13:42 | 10.99768 | 122.47777 | 6975 ft | 276 kts | 322° |
| 2026-04-26 13:42 | 11.01332 | 122.46562 | 7094 ft | 296 kts | 322° |
| 2026-04-26 13:42 | 11.03045 | 122.45239 | 7099 ft | 315 kts | 322° |
| 2026-04-26 13:43 | 11.04730 | 122.43938 | 6980 ft | 297 kts | 323° |
| 2026-04-26 13:43 | 11.06372 | 122.42675 | 6920 ft | 302 kts | 323° |
| 2026-04-26 13:43 | 11.08022 | 122.41406 | 7523 ft | 294 kts | 323° |
| 2026-04-26 13:43 | 11.09630 | 122.40168 | 8076 ft | 281 kts | 323° |
| 2026-04-26 13:44 | 11.11150 | 122.38998 | 8086 ft | 275 kts | 323° |
| 2026-04-26 13:44 | 11.12688 | 122.37814 | 8419 ft | 279 kts | 323° |
| 2026-04-26 13:44 | 11.14217 | 122.36638 | 9020 ft | 277 kts | 323° |
| 2026-04-26 13:44 | 11.15803 | 122.35502 | 9473 ft | 281 kts | 328° |
| 2026-04-26 13:45 | 11.17526 | 122.34547 | 10228 ft | 285 kts | 335° |
| 2026-04-26 13:45 | 11.19342 | 122.33733 | 10931 ft | 292 kts | 337° |
| 2026-04-26 13:45 | 11.21252 | 122.32912 | 11458 ft | 305 kts | 337° |
| 2026-04-26 13:45 | 11.23206 | 122.32076 | 12215 ft | 310 kts | 337° |
| 2026-04-26 13:46 | 11.25194 | 122.31222 | 13001 ft | 313 kts | 337° |
| 2026-04-26 13:46 | 11.27216 | 122.30351 | 13754 ft | 316 kts | 337° |
| 2026-04-26 13:46 | 11.29231 | 122.29482 | 14472 ft | 320 kts | 337° |
| 2026-04-26 13:46 | 11.31265 | 122.28603 | 15170 ft | 323 kts | 337° |
| 2026-04-26 13:47 | 11.33340 | 122.27705 | 15857 ft | 327 kts | 337° |
| 2026-04-26 13:47 | 11.35435 | 122.26798 | 16528 ft | 330 kts | 337° |
| 2026-04-26 13:47 | 11.37571 | 122.25872 | 17188 ft | 334 kts | 337° |
| 2026-04-26 13:47 | 11.39712 | 122.24944 | 17825 ft | 337 kts | 337° |
| 2026-04-26 13:48 | 11.41876 | 122.24006 | 18445 ft | 341 kts | 337° |
| 2026-04-26 13:48 | 11.44036 | 122.23069 | 19042 ft | 344 kts | 337° |
| 2026-04-26 13:48 | 11.46249 | 122.22110 | 19633 ft | 347 kts | 337° |
| 2026-04-26 13:48 | 11.48477 | 122.21143 | 20209 ft | 351 kts | 337° |
| 2026-04-26 13:49 | 11.50704 | 122.20177 | 20771 ft | 354 kts | 337° |
| 2026-04-26 13:49 | 11.52973 | 122.19192 | 21326 ft | 357 kts | 337° |
| 2026-04-26 13:49 | 11.55259 | 122.18201 | 21868 ft | 360 kts | 337° |
| 2026-04-26 13:49 | 11.57590 | 122.17188 | 22405 ft | 363 kts | 337° |
| 2026-04-26 13:50 | 11.59956 | 122.16161 | 22932 ft | 366 kts | 337° |
| 2026-04-26 13:50 | 11.62329 | 122.15131 | 23444 ft | 370 kts | 337° |
| 2026-04-26 13:50 | 11.64673 | 122.14112 | 23933 ft | 373 kts | 337° |
| 2026-04-26 13:50 | 11.67086 | 122.13065 | 24421 ft | 376 kts | 337° |
| 2026-04-26 13:51 | 11.69480 | 122.12024 | 24890 ft | 379 kts | 337° |
| 2026-04-26 13:51 | 11.71912 | 122.10967 | 25351 ft | 381 kts | 337° |
| 2026-04-26 13:51 | 11.74350 | 122.09907 | 25800 ft | 384 kts | 337° |
| 2026-04-26 13:51 | 11.76791 | 122.08845 | 26238 ft | 387 kts | 337° |
| 2026-04-26 13:52 | 11.79288 | 122.07760 | 26668 ft | 390 kts | 337° |
| 2026-04-26 13:52 | 11.81786 | 122.06673 | 27085 ft | 393 kts | 337° |
| 2026-04-26 13:52 | 11.84319 | 122.05572 | 27496 ft | 395 kts | 337° |
| 2026-04-26 13:52 | 11.86819 | 122.04484 | 27890 ft | 398 kts | 337° |
| 2026-04-26 13:53 | 11.89382 | 122.03368 | 28281 ft | 401 kts | 337° |
| 2026-04-26 13:53 | 11.91937 | 122.02256 | 28657 ft | 403 kts | 337° |
| 2026-04-26 13:53 | 11.94550 | 122.01118 | 29030 ft | 406 kts | 337° |
| 2026-04-26 13:53 | 11.97127 | 121.99996 | 29385 ft | 408 kts | 337° |
| 2026-04-26 13:54 | 11.99749 | 121.98854 | 29736 ft | 411 kts | 337° |
| 2026-04-26 13:54 | 12.02380 | 121.97707 | 30076 ft | 413 kts | 337° |
| 2026-04-26 13:54 | 12.05011 | 121.96561 | 30408 ft | 415 kts | 337° |
| 2026-04-26 13:55 | 12.10356 | 121.94231 | 31043 ft | 420 kts | 337° |
| 2026-04-26 13:55 | 12.12137 | 121.93454 | 31246 ft | 421 kts | 337° |
| 2026-04-26 13:55 | 12.18447 | 121.90700 | 31922 ft | 426 kts | 337° |
| 2026-04-26 13:56 | 12.21177 | 121.89509 | 31981 ft | 427 kts | 337° |
| 2026-04-26 13:56 | 12.26613 | 121.87135 | 31987 ft | 427 kts | 337° |
| 2026-04-26 13:57 | 12.32107 | 121.84734 | 31988 ft | 426 kts | 337° |
| 2026-04-26 13:57 | 12.37552 | 121.82354 | 31988 ft | 426 kts | 337° |
| 2026-04-26 13:58 | 12.43010 | 121.79971 | 31988 ft | 426 kts | 337° |
| 2026-04-26 13:58 | 12.48447 | 121.77593 | 31988 ft | 426 kts | 337° |
| 2026-04-26 13:59 | 12.53871 | 121.75217 | 31988 ft | 426 kts | 337° |
| 2026-04-26 13:59 | 12.59306 | 121.72835 | 31988 ft | 426 kts | 337° |
| 2026-04-26 14:00 | 12.67463 | 121.69260 | 31367 ft | 422 kts | 337° |
| 2026-04-26 14:00 | 12.70185 | 121.68065 | 31074 ft | 420 kts | 337° |
| 2026-04-26 14:00 | 12.71982 | 121.67277 | 30800 ft | 418 kts | 337° |
| 2026-04-26 14:01 | 12.75570 | 121.65702 | 30103 ft | 416 kts | 337° |
| 2026-04-26 14:01 | 12.78247 | 121.64526 | 29687 ft | 411 kts | 337° |
| 2026-04-26 14:01 | 12.80854 | 121.63382 | 29254 ft | 406 kts | 337° |
| 2026-04-26 14:01 | 12.83445 | 121.62244 | 28809 ft | 402 kts | 337° |
| 2026-04-26 14:02 | 12.86003 | 121.61120 | 28361 ft | 398 kts | 337° |
| 2026-04-26 14:02 | 12.88568 | 121.59992 | 27909 ft | 395 kts | 337° |
| 2026-04-26 14:02 | 12.91128 | 121.58867 | 27453 ft | 391 kts | 337° |
| 2026-04-26 14:02 | 12.93653 | 121.57758 | 27002 ft | 388 kts | 337° |
| 2026-04-26 14:03 | 12.96126 | 121.56670 | 26557 ft | 384 kts | 337° |
| 2026-04-26 14:03 | 12.98570 | 121.55595 | 26116 ft | 381 kts | 337° |
| 2026-04-26 14:03 | 13.01021 | 121.54517 | 25670 ft | 378 kts | 337° |
| 2026-04-26 14:03 | 13.03420 | 121.53461 | 25231 ft | 375 kts | 337° |
| 2026-04-26 14:04 | 13.05810 | 121.52409 | 24791 ft | 372 kts | 337° |
| 2026-04-26 14:04 | 13.08194 | 121.51360 | 24352 ft | 369 kts | 337° |
| 2026-04-26 14:04 | 13.10537 | 121.50328 | 23919 ft | 367 kts | 337° |
| 2026-04-26 14:04 | 13.12854 | 121.49307 | 23488 ft | 364 kts | 337° |
| 2026-04-26 14:05 | 13.15159 | 121.48292 | 23058 ft | 362 kts | 337° |
| 2026-04-26 14:05 | 13.17468 | 121.47276 | 22625 ft | 359 kts | 337° |
| 2026-04-26 14:05 | 13.19742 | 121.46274 | 22198 ft | 357 kts | 337° |
| 2026-04-26 14:05 | 13.22027 | 121.45267 | 21767 ft | 355 kts | 337° |
| 2026-04-26 14:06 | 13.24282 | 121.44273 | 21340 ft | 353 kts | 337° |
| 2026-04-26 14:06 | 13.26527 | 121.43282 | 20914 ft | 351 kts | 337° |
| 2026-04-26 14:06 | 13.28762 | 121.42297 | 20488 ft | 349 kts | 337° |
| 2026-04-26 14:06 | 13.30971 | 121.41322 | 20066 ft | 347 kts | 337° |
| 2026-04-26 14:07 | 13.33175 | 121.40350 | 19642 ft | 346 kts | 337° |
| 2026-04-26 14:07 | 13.35383 | 121.39375 | 19218 ft | 344 kts | 337° |
| 2026-04-26 14:07 | 13.37564 | 121.38412 | 18797 ft | 342 kts | 337° |
| 2026-04-26 14:07 | 13.39743 | 121.37450 | 18376 ft | 341 kts | 337° |
| 2026-04-26 14:08 | 13.41912 | 121.36492 | 17956 ft | 339 kts | 337° |
| 2026-04-26 14:08 | 13.44051 | 121.35547 | 17540 ft | 337 kts | 337° |
| 2026-04-26 14:08 | 13.46186 | 121.34604 | 17126 ft | 336 kts | 336° |
| 2026-04-26 14:08 | 13.48351 | 121.33646 | 16703 ft | 334 kts | 336° |
| 2026-04-26 14:09 | 13.50467 | 121.32712 | 16302 ft | 332 kts | 336° |
| 2026-04-26 14:09 | 13.52556 | 121.31788 | 16065 ft | 324 kts | 336° |
| 2026-04-26 14:09 | 13.54575 | 121.30895 | 15995 ft | 311 kts | 336° |
| 2026-04-26 14:09 | 13.56550 | 121.30022 | 15994 ft | 309 kts | 336° |
| 2026-04-26 14:10 | 13.58529 | 121.29147 | 15993 ft | 309 kts | 336° |
| 2026-04-26 14:10 | 13.60509 | 121.28271 | 15993 ft | 309 kts | 336° |
| 2026-04-26 14:10 | 13.62469 | 121.27404 | 15993 ft | 309 kts | 336° |
| 2026-04-26 14:10 | 13.64441 | 121.26531 | 15993 ft | 309 kts | 336° |
| 2026-04-26 14:11 | 13.68389 | 121.24782 | 15992 ft | 309 kts | 336° |
| 2026-04-26 14:11 | 13.70367 | 121.23905 | 15992 ft | 309 kts | 336° |
| 2026-04-26 14:11 | 13.72336 | 121.23032 | 15992 ft | 309 kts | 336° |
| 2026-04-26 14:12 | 13.74281 | 121.22170 | 15992 ft | 309 kts | 336° |
| 2026-04-26 14:12 | 13.76256 | 121.21294 | 15992 ft | 309 kts | 336° |
| 2026-04-26 14:12 | 13.78208 | 121.20428 | 15992 ft | 309 kts | 336° |
| 2026-04-26 14:12 | 13.80156 | 121.19499 | 15971 ft | 306 kts | 332° |
| 2026-04-26 14:13 | 13.83040 | 121.16401 | 15219 ft | 304 kts | 300° |
| 2026-04-26 14:13 | 13.84062 | 121.14509 | 14848 ft | 303 kts | 298° |
| 2026-04-26 14:13 | 13.85046 | 121.12611 | 14483 ft | 301 kts | 298° |
| 2026-04-26 14:14 | 13.86023 | 121.10712 | 14121 ft | 299 kts | 298° |
| 2026-04-26 14:14 | 13.86985 | 121.08838 | 13760 ft | 298 kts | 298° |
| 2026-04-26 14:14 | 13.87950 | 121.06958 | 13396 ft | 296 kts | 298° |
| 2026-04-26 14:14 | 13.88905 | 121.05097 | 13033 ft | 294 kts | 298° |
| 2026-04-26 14:15 | 13.89866 | 121.03223 | 12664 ft | 292 kts | 298° |
| 2026-04-26 14:15 | 13.90806 | 121.01390 | 12300 ft | 291 kts | 298° |
| 2026-04-26 14:15 | 13.91745 | 120.99560 | 11935 ft | 289 kts | 298° |
| 2026-04-26 14:15 | 13.92681 | 120.97734 | 11568 ft | 287 kts | 298° |
| 2026-04-26 14:16 | 13.93608 | 120.95927 | 11201 ft | 286 kts | 298° |
| 2026-04-26 14:16 | 13.94534 | 120.94119 | 10832 ft | 284 kts | 298° |
| 2026-04-26 14:16 | 13.95455 | 120.92323 | 10463 ft | 283 kts | 298° |
| 2026-04-26 14:16 | 13.96367 | 120.90543 | 10099 ft | 281 kts | 298° |
| 2026-04-26 14:17 | 13.97279 | 120.88763 | 9734 ft | 279 kts | 298° |
| 2026-04-26 14:17 | 13.98183 | 120.86997 | 9371 ft | 278 kts | 298° |
| 2026-04-26 14:17 | 13.99084 | 120.85239 | 9010 ft | 276 kts | 298° |
| 2026-04-26 14:17 | 13.99969 | 120.83511 | 8654 ft | 275 kts | 298° |
| 2026-04-26 14:18 | 14.00858 | 120.81775 | 8297 ft | 273 kts | 298° |
| 2026-04-26 14:18 | 14.01919 | 120.80169 | 7912 ft | 273 kts | 316° |
| 2026-04-26 14:18 | 14.03397 | 120.78980 | 7583 ft | 270 kts | 326° |
| 2026-04-26 14:18 | 14.04961 | 120.77928 | 7228 ft | 269 kts | 328° |
| 2026-04-26 14:19 | 14.06550 | 120.76895 | 6870 ft | 268 kts | 328° |
| 2026-04-26 14:19 | 14.08109 | 120.75887 | 6525 ft | 266 kts | 328° |
| 2026-04-26 14:19 | 14.09671 | 120.74880 | 6178 ft | 265 kts | 328° |
| 2026-04-26 14:19 | 14.11246 | 120.73862 | 5828 ft | 263 kts | 328° |
| 2026-04-26 14:20 | 14.12813 | 120.72850 | 5514 ft | 260 kts | 328° |
| 2026-04-26 14:20 | 14.14377 | 120.71841 | 5348 ft | 251 kts | 328° |
| 2026-04-26 14:20 | 14.15849 | 120.70891 | 5187 ft | 243 kts | 328° |
| 2026-04-26 14:20 | 14.17252 | 120.69984 | 5076 ft | 238 kts | 328° |
| 2026-04-26 14:21 | 14.18666 | 120.69071 | 5072 ft | 239 kts | 328° |
| 2026-04-26 14:21 | 14.20076 | 120.68160 | 5070 ft | 240 kts | 328° |
| 2026-04-26 14:21 | 14.21549 | 120.67359 | 5057 ft | 240 kts | 345° |
| 2026-04-26 14:21 | 14.23196 | 120.67328 | 5061 ft | 239 kts | 15° |
| 2026-04-26 14:22 | 14.24722 | 120.67939 | 5049 ft | 237 kts | 26° |
| 2026-04-26 14:22 | 14.26191 | 120.68702 | 5054 ft | 228 kts | 27° |
| 2026-04-26 14:22 | 14.27552 | 120.69440 | 5024 ft | 216 kts | 28° |
| 2026-04-26 14:22 | 14.28888 | 120.70169 | 4740 ft | 217 kts | 28° |
| 2026-04-26 14:23 | 14.30222 | 120.70899 | 4450 ft | 217 kts | 28° |
| 2026-04-26 14:23 | 14.31555 | 120.71629 | 4179 ft | 216 kts | 28° |
| 2026-04-26 14:23 | 14.32867 | 120.72347 | 3913 ft | 215 kts | 28° |
| 2026-04-26 14:23 | 14.34115 | 120.73207 | 3642 ft | 214 kts | 39° |
| 2026-04-26 14:24 | 14.34863 | 120.73885 | 3461 ft | 214 kts | 46° |
| 2026-04-26 14:24 | 14.36088 | 120.75481 | 3126 ft | 212 kts | 57° |
| 2026-04-26 14:24 | 14.36861 | 120.76768 | 3078 ft | 212 kts | 59° |
| 2026-04-26 14:24 | 14.37602 | 120.78075 | 3073 ft | 212 kts | 60° |
| 2026-04-26 14:25 | 14.38327 | 120.79378 | 3080 ft | 197 kts | 60° |
| 2026-04-26 14:25 | 14.38963 | 120.80524 | 3117 ft | 177 kts | 60° |
| 2026-04-26 14:25 | 14.39553 | 120.81589 | 3061 ft | 161 kts | 60° |
| 2026-04-26 14:25 | 14.40082 | 120.82542 | 3030 ft | 146 kts | 60° |
| 2026-04-26 14:26 | 14.40252 | 120.82850 | 3031 ft | 145 kts | 60° |
| 2026-04-26 14:27 | 14.42690 | 120.87241 | 2849 ft | 144 kts | 60° |
| 2026-04-26 14:27 | 14.43174 | 120.88113 | 2666 ft | 143 kts | 60° |
| 2026-04-26 14:27 | 14.43673 | 120.89011 | 2479 ft | 143 kts | 60° |
| 2026-04-26 14:27 | 14.44152 | 120.89875 | 2323 ft | 135 kts | 60° |
| 2026-04-26 14:28 | 14.44611 | 120.90700 | 2131 ft | 132 kts | 60° |
| 2026-04-26 14:28 | 14.45072 | 120.91531 | 1953 ft | 132 kts | 60° |
| 2026-04-26 14:28 | 14.45523 | 120.92342 | 1776 ft | 131 kts | 60° |
| 2026-04-26 14:28 | 14.45979 | 120.93163 | 1598 ft | 131 kts | 60° |
| 2026-04-26 14:29 | 14.46433 | 120.93980 | 1423 ft | 131 kts | 60° |
| 2026-04-26 14:29 | 14.46884 | 120.94792 | 1250 ft | 130 kts | 60° |
| 2026-04-26 14:29 | 14.47335 | 120.95603 | 1077 ft | 130 kts | 60° |
| 2026-04-26 14:29 | 14.47790 | 120.96422 | 904 ft | 130 kts | 60° |
| 2026-04-26 14:30 | 14.48232 | 120.97219 | 734 ft | 129 kts | 60° |
| 2026-04-26 14:30 | 14.48683 | 120.98031 | 563 ft | 129 kts | 60° |
| 2026-04-26 14:30 | 14.49131 | 120.98834 | 380 ft | 128 kts | 60° |
| 2026-04-26 14:30 | 14.49576 | 120.99629 | 221 ft | 128 kts | 60° |
| 2026-04-26 14:31 | 14.50015 | 121.00424 | 95 ft | 124 kts | 60° |
| 2026-04-26 14:31 | 14.50395 | 121.01113 | 84 ft | 87 kts | 60° |
| 2026-04-26 14:31 | 14.50613 | 121.01505 | 84 ft | 40 kts | 60° |
| 2026-04-26 14:31 | 14.50709 | 121.01659 | 84 ft | 21 kts | 45° |
| 2026-04-26 14:32 | 14.50819 | 121.01759 | 84 ft | 13 kts | 38° |
| 2026-04-26 14:32 | 14.50863 | 121.01784 | 84 ft | 7 kts | 8° |
| 2026-04-26 14:32 | 14.50913 | 121.01762 | 84 ft | 8 kts | 321° |
| 2026-04-26 14:32 | 14.50961 | 121.01715 | 84 ft | 10 kts | 314° |
| 2026-04-26 14:33 | 14.51014 | 121.01659 | 84 ft | 11 kts | 315° |
| 2026-04-26 14:33 | 14.51073 | 121.01598 | 84 ft | 12 kts | 315° |
| 2026-04-26 14:33 | 14.51138 | 121.01531 | 84 ft | 13 kts | 315° |
| 2026-04-26 14:33 | 14.51179 | 121.01490 | 84 ft | 4 kts | 316° |
| 2026-04-26 14:34 | 14.51183 | 121.01485 | 84 ft | 0 kts | 316° |
| 2026-04-26 14:35 | 14.51184 | 121.01484 | 84 ft | 1 kts | 316° |
| 2026-04-26 14:35 | 14.51198 | 121.01470 | 84 ft | 5 kts | 316° |
| 2026-04-26 14:35 | 14.51246 | 121.01434 | 84 ft | 11 kts | 347° |
| 2026-04-26 14:36 | 14.51316 | 121.01470 | 84 ft | 12 kts | 48° |
| 2026-04-26 14:36 | 14.51375 | 121.01541 | 84 ft | 13 kts | 46° |
| 2026-04-26 14:36 | 14.51450 | 121.01604 | 84 ft | 14 kts | 33° |
| 2026-04-26 14:36 | 14.51527 | 121.01676 | 84 ft | 15 kts | 45° |
| 2026-04-26 14:37 | 14.51604 | 121.01755 | 84 ft | 15 kts | 45° |
| 2026-04-26 14:37 | 14.51681 | 121.01775 | 84 ft | 7 kts | 323° |
| 2026-04-26 14:37 | 14.51672 | 121.01735 | 84 ft | 3 kts | 229° |
| 2026-04-26 14:37 | 14.51659 | 121.01721 | 84 ft | 0 kts | 223° |
| 2026-04-26 14:38 | 14.51658 | 121.01720 | 84 ft | 0 kts | 224° |
| 2026-04-26 14:38 | 14.51652 | 121.01714 | 84 ft | 0 kts | 225° |